weather.gov     
National Weather Service

Terminal Aerodrome Forecast
NWS Homepage
This page is being discontinued on March 12, 2014.
The same data is available at this site. Please update your bookmarks.
Thank you, and we apologize for the inconvenience.
Please send an email to SR-SRH.Webmaster@noaa.gov with any concerns.


Current Version
Previous Version:    01  02  03  04  05  06  07  08  09  10  11  12  13  14  15  16  17  18  19  20  21  22  23  24  25  26  27  28  29  
[Printable]
422
FTUS43 KDMX 211136
TAFDSM
TAF
KDSM 211136Z 2112/2212 15004KT P6SM VCSH BKN045 BKN080
     FM211400 25010KT 6SM -SHRA VCTS SCT025CB BKN060
     FM211800 31015G21KT P6SM FEW050 BKN100
     FM220100 35010KT P6SM SKC=




422
FTUS43 KDMX 211136
TAFDSM
TAF
KDSM 211136Z 2112/2212 15004KT P6SM VCSH BKN045 BKN080
     FM211400 25010KT 6SM -SHRA VCTS SCT025CB BKN060
     FM211800 31015G21KT P6SM FEW050 BKN100
     FM220100 35010KT P6SM SKC=


U.S. Dept. of Commerce
NOAA National Weather Service
1325 East West Highway
Silver Spring, MD 20910
E-mail: w-nws.webmaster@noaa.gov
Page last modified: May 16, 2007
NATIONAL WEATHER SERVICE: for Safety, for Work, for Fun - FOR LIFE